createdAt,value
2023-07-09T00:01:26.840Z,52.55
2023-07-09T00:03:54.629Z,52.80
2023-07-09T00:06:22.507Z,52.88
2023-07-09T00:08:50.113Z,53.37
2023-07-09T00:11:17.865Z,53.22
2023-07-09T00:13:44.680Z,53.11
2023-07-09T00:16:22.487Z,53.05
2023-07-09T00:18:50.002Z,53.01
2023-07-09T00:21:21.677Z,53.55
2023-07-09T00:23:51.067Z,53.24
2023-07-09T00:26:21.606Z,53.12
2023-07-09T00:28:48.189Z,53.30
2023-07-09T00:31:17.257Z,53.38
2023-07-09T00:33:44.709Z,53.30
2023-07-09T00:36:30.059Z,53.25
2023-07-09T00:39:00.362Z,53.10
2023-07-09T00:41:26.968Z,53.16
2023-07-09T00:43:53.947Z,53.15
2023-07-09T00:46:20.471Z,53.27
2023-07-09T00:48:58.938Z,53.32
2023-07-09T00:51:27.315Z,53.22
2023-07-09T00:53:59.985Z,53.25
2023-07-09T00:56:39.385Z,53.14
2023-07-09T00:59:09.460Z,53.30
2023-07-09T01:01:36.233Z,53.19
2023-07-09T01:04:04.716Z,53.46
2023-07-09T01:06:42.608Z,53.38
2023-07-09T01:09:09.164Z,52.96
2023-07-09T01:11:39.096Z,53.00
2023-07-09T01:14:09.025Z,52.99
2023-07-09T01:16:39.876Z,53.02
2023-07-09T01:19:07.312Z,52.88
2023-07-09T01:21:34.051Z,52.90
2023-07-09T01:24:27.726Z,52.80
2023-07-09T01:26:55.357Z,52.72
2023-07-09T01:29:21.872Z,53.17
2023-07-09T01:31:48.406Z,53.01
2023-07-09T01:34:16.544Z,52.94
2023-07-09T01:36:43.136Z,53.02
2023-07-09T01:39:09.784Z,52.96
2023-07-09T01:41:36.316Z,52.87
2023-07-09T01:44:02.856Z,52.91
2023-07-09T01:46:29.430Z,52.93
2023-07-09T01:48:56.025Z,53.08
2023-07-09T01:51:25.459Z,52.93
2023-07-09T01:53:52.042Z,53.07
2023-07-09T01:56:18.558Z,53.01
2023-07-09T01:58:45.100Z,53.18
2023-07-09T02:01:11.996Z,53.01
2023-07-09T02:03:38.782Z,52.85
2023-07-09T02:06:10.646Z,53.16
2023-07-09T02:08:38.459Z,53.08
2023-07-09T02:11:06.128Z,53.25
2023-07-09T02:13:32.685Z,53.28
2023-07-09T02:15:59.260Z,53.25
2023-07-09T02:18:25.783Z,53.28
2023-07-09T02:20:52.371Z,53.13
2023-07-09T02:23:18.874Z,53.41
2023-07-09T02:25:45.450Z,53.43
2023-07-09T02:28:11.979Z,53.34
2023-07-09T02:30:38.508Z,53.33
2023-07-09T02:33:05.118Z,53.30
2023-07-09T02:35:31.685Z,53.42
2023-07-09T02:37:58.202Z,53.46
2023-07-09T02:40:24.891Z,53.39
2023-07-09T02:42:51.415Z,53.42
2023-07-09T02:45:17.948Z,53.53
2023-07-09T02:47:44.566Z,53.46
2023-07-09T02:50:11.148Z,53.22
2023-07-09T02:52:37.732Z,53.24
2023-07-09T02:55:04.962Z,53.09
2023-07-09T02:57:31.504Z,53.19
2023-07-09T02:59:58.059Z,53.04
2023-07-09T03:02:24.661Z,53.04
2023-07-09T03:04:51.242Z,52.94
2023-07-09T03:07:17.792Z,53.29
2023-07-09T03:09:44.320Z,53.36
2023-07-09T03:12:11.024Z,53.33
2023-07-09T03:14:37.817Z,53.00
2023-07-09T03:17:04.828Z,52.93
2023-07-09T03:19:31.418Z,52.90
2023-07-09T03:21:57.946Z,52.97
2023-07-09T03:24:24.468Z,52.97
2023-07-09T03:26:51.031Z,53.29
2023-07-09T03:29:17.564Z,53.68
2023-07-09T03:31:44.643Z,53.74
2023-07-09T03:34:11.507Z,53.91
2023-07-09T03:36:38.865Z,53.81
2023-07-09T03:39:06.829Z,54.13
2023-07-09T03:41:33.708Z,54.34
2023-07-09T03:44:00.451Z,54.37
2023-07-09T03:46:27.024Z,54.46
2023-07-09T03:48:53.743Z,54.70
2023-07-09T03:51:20.260Z,54.44
2023-07-09T03:53:46.789Z,54.33
2023-07-09T03:56:13.356Z,54.55
2023-07-09T03:58:39.964Z,54.54
2023-07-09T04:01:06.701Z,54.67
2023-07-09T04:03:33.292Z,54.91
2023-07-09T04:06:00.061Z,54.50
2023-07-09T04:08:26.817Z,54.64
2023-07-09T04:11:00.946Z,54.74
2023-07-09T04:13:29.264Z,54.81
2023-07-09T04:15:56.994Z,54.45
2023-07-09T04:18:23.583Z,54.64
2023-07-09T04:20:51.131Z,54.56
2023-07-09T04:23:19.077Z,54.66
2023-07-09T04:25:45.591Z,54.95
2023-07-09T04:28:12.918Z,54.88
2023-07-09T04:30:39.443Z,54.96
2023-07-09T04:33:06.207Z,54.84
2023-07-09T04:35:32.757Z,54.93
2023-07-09T04:37:59.334Z,54.74
2023-07-09T04:40:25.878Z,55.07
2023-07-09T04:42:52.390Z,54.77
2023-07-09T04:45:18.972Z,54.86
2023-07-09T04:47:45.507Z,54.69
2023-07-09T04:50:13.156Z,54.73
2023-07-09T04:52:39.777Z,54.73
2023-07-09T04:55:06.876Z,54.83
2023-07-09T04:57:33.446Z,54.80
2023-07-09T05:00:00.060Z,54.55
2023-07-09T05:02:26.988Z,54.62
2023-07-09T05:04:53.676Z,54.51
2023-07-09T05:07:21.177Z,54.65
2023-07-09T05:09:48.417Z,54.52
2023-07-09T05:12:15.390Z,54.54
2023-07-09T05:14:41.931Z,54.56
2023-07-09T05:17:08.989Z,54.66
2023-07-09T05:19:36.490Z,54.73
2023-07-09T05:22:03.262Z,54.65
2023-07-09T05:24:29.800Z,55.10
2023-07-09T05:26:57.002Z,54.84
2023-07-09T05:29:24.255Z,55.03
2023-07-09T05:31:50.819Z,54.97
2023-07-09T05:34:17.465Z,55.05
2023-07-09T05:36:44.085Z,55.08
2023-07-09T05:39:10.592Z,55.23
2023-07-09T05:41:37.424Z,55.00
2023-07-09T05:44:04.370Z,55.25
2023-07-09T05:46:37.162Z,55.31
2023-07-09T05:49:06.264Z,55.13
2023-07-09T05:51:32.870Z,55.13
2023-07-09T05:53:59.471Z,55.20
2023-07-09T05:56:26.034Z,55.40
2023-07-09T05:58:53.697Z,55.61
2023-07-09T06:01:21.343Z,55.33
2023-07-09T06:03:48.503Z,55.14
2023-07-09T06:06:15.164Z,55.13
2023-07-09T06:08:41.900Z,55.21
2023-07-09T06:11:08.442Z,55.05
2023-07-09T06:13:35.090Z,54.92
2023-07-09T06:16:02.940Z,54.69
2023-07-09T06:18:30.968Z,54.66
2023-07-09T06:21:00.845Z,54.47
2023-07-09T06:23:27.876Z,54.32
2023-07-09T06:25:55.040Z,54.37
2023-07-09T06:28:24.164Z,54.37
2023-07-09T06:30:51.092Z,54.30
2023-07-09T06:33:20.360Z,54.12
2023-07-09T06:35:51.315Z,53.73
2023-07-09T06:38:19.156Z,53.68
2023-07-09T06:40:46.107Z,53.50
2023-07-09T06:43:13.116Z,53.38
2023-07-09T06:45:39.867Z,53.14
2023-07-09T06:48:06.662Z,53.13
2023-07-09T06:50:37.355Z,53.15
2023-07-09T06:53:03.937Z,52.68
2023-07-09T06:55:30.491Z,52.69
2023-07-09T06:57:57.029Z,52.81
2023-07-09T07:00:23.618Z,52.70
2023-07-09T07:02:50.689Z,52.84
2023-07-09T07:05:17.452Z,52.59
2023-07-09T07:07:43.950Z,52.58
2023-07-09T07:10:10.575Z,52.34
2023-07-09T07:12:45.577Z,52.38
2023-07-09T07:15:14.473Z,52.31
2023-07-09T07:17:41.406Z,52.39
2023-07-09T07:20:09.892Z,52.34
2023-07-09T07:22:36.640Z,52.12
2023-07-09T07:25:04.520Z,52.30
2023-07-09T07:27:31.321Z,52.19
2023-07-09T07:29:58.759Z,52.15
2023-07-09T07:32:25.688Z,52.03
2023-07-09T07:34:52.691Z,52.08
2023-07-09T07:37:22.777Z,51.90
2023-07-09T07:39:49.629Z,52.04
2023-07-09T07:42:16.346Z,51.92
2023-07-09T07:44:42.907Z,51.81
2023-07-09T07:47:09.463Z,51.76
2023-07-09T07:49:35.984Z,51.62
2023-07-09T07:52:04.414Z,51.67
2023-07-09T07:54:32.555Z,51.77
2023-07-09T07:56:59.862Z,51.53
2023-07-09T07:59:27.104Z,51.47
2023-07-09T08:01:54.116Z,51.53
2023-07-09T08:04:20.792Z,51.57
2023-07-09T08:06:47.366Z,51.37
2023-07-09T08:09:14.680Z,51.44
2023-07-09T08:11:41.259Z,51.53
2023-07-09T08:14:07.944Z,51.24
2023-07-09T08:16:34.674Z,51.66
2023-07-09T08:19:01.329Z,51.34
2023-07-09T08:21:28.004Z,51.33
2023-07-09T08:23:54.552Z,51.24
2023-07-09T08:26:21.078Z,51.20
2023-07-09T08:28:47.601Z,51.16
2023-07-09T08:31:14.188Z,51.06
2023-07-09T08:33:41.236Z,51.03
2023-07-09T08:36:07.864Z,51.20
2023-07-09T08:38:35.259Z,51.13
2023-07-09T08:41:07.823Z,50.99
2023-07-09T08:44:15.454Z,51.03
2023-07-09T08:47:00.423Z,51.00
2023-07-09T08:49:38.506Z,51.22
2023-07-09T08:52:15.937Z,50.89
2023-07-09T08:54:44.552Z,51.41
2023-07-09T08:57:21.622Z,51.12
2023-07-09T08:59:50.614Z,51.12
2023-07-09T09:02:34.441Z,50.76
2023-07-09T09:05:02.960Z,51.00
2023-07-09T09:07:42.160Z,50.96
2023-07-09T09:10:15.747Z,51.15
2023-07-09T09:13:07.631Z,51.19
2023-07-09T09:15:35.128Z,51.08
2023-07-09T09:18:35.442Z,51.09
2023-07-09T09:21:18.477Z,51.03
2023-07-09T09:23:51.010Z,51.08
2023-07-09T09:26:39.926Z,51.01
2023-07-09T09:29:15.166Z,51.09
2023-07-09T09:31:46.287Z,51.22
2023-07-09T09:34:24.471Z,51.18
2023-07-09T09:36:51.253Z,51.18
2023-07-09T09:39:18.889Z,51.13
2023-07-09T09:41:46.617Z,51.27
2023-07-09T09:44:27.379Z,51.06
2023-07-09T09:46:54.788Z,51.04
2023-07-09T09:49:21.291Z,50.89
2023-07-09T09:51:48.814Z,50.82
2023-07-09T09:54:22.027Z,50.98
2023-07-09T09:56:53.659Z,50.93
2023-07-09T09:59:23.010Z,51.01
2023-07-09T10:01:58.789Z,50.89
2023-07-09T10:04:25.489Z,50.93
2023-07-09T10:06:57.313Z,50.45
2023-07-09T10:09:47.623Z,50.95
2023-07-09T10:12:19.821Z,50.64
2023-07-09T10:15:01.731Z,50.54
2023-07-09T10:17:47.460Z,50.61
2023-07-09T10:20:31.964Z,50.47
2023-07-09T10:23:35.117Z,50.47
2023-07-09T10:26:19.872Z,49.36
2023-07-09T10:28:55.217Z,50.33
2023-07-09T10:31:25.416Z,50.27
2023-07-09T10:34:19.944Z,50.28
2023-07-09T10:37:09.699Z,49.90
2023-07-09T10:39:43.008Z,50.15
2023-07-09T10:42:21.606Z,50.12
2023-07-09T10:44:57.309Z,50.13
2023-07-09T10:47:36.147Z,49.77
2023-07-09T10:50:06.612Z,49.99
2023-07-09T10:52:37.282Z,50.03
2023-07-09T10:55:22.322Z,49.88
2023-07-09T10:58:06.630Z,50.24
2023-07-09T11:00:42.896Z,49.54
2023-07-09T11:03:20.859Z,49.64
2023-07-09T11:05:50.318Z,46.98
2023-07-09T11:08:23.572Z,49.75
2023-07-09T11:11:03.918Z,49.76
2023-07-09T11:13:58.333Z,49.94
2023-07-09T11:16:33.630Z,49.84
2023-07-09T11:19:02.963Z,49.22
2023-07-09T11:21:29.600Z,49.63
2023-07-09T11:24:00.775Z,49.65
2023-07-09T11:26:34.857Z,49.61
2023-07-09T11:29:07.529Z,49.44
2023-07-09T11:31:39.844Z,49.54
2023-07-09T11:34:18.429Z,49.34
2023-07-09T11:36:52.340Z,49.04
2023-07-09T11:39:35.638Z,49.11
2023-07-09T11:42:02.224Z,49.13
2023-07-09T11:44:31.651Z,48.32
2023-07-09T11:47:18.914Z,48.81
2023-07-09T11:50:05.565Z,48.68
2023-07-09T11:52:38.483Z,48.89
2023-07-09T11:55:28.445Z,49.01
2023-07-09T11:58:01.842Z,49.30
2023-07-09T12:00:30.043Z,49.26
2023-07-09T12:02:57.549Z,44.38
2023-07-09T12:05:30.164Z,48.39
2023-07-09T12:08:00.626Z,48.62
2023-07-09T12:10:36.074Z,48.59
2023-07-09T12:13:05.024Z,48.61
2023-07-09T12:15:35.506Z,48.25
2023-07-09T12:18:10.682Z,48.46
2023-07-09T12:20:38.249Z,48.35
2023-07-09T12:23:19.617Z,47.75
2023-07-09T12:25:51.282Z,44.58
2023-07-09T12:28:19.001Z,46.68
2023-07-09T12:30:48.643Z,47.20
2023-07-09T12:33:20.761Z,47.82
2023-07-09T12:35:57.643Z,47.44
2023-07-09T12:38:26.490Z,47.80
2023-07-09T12:40:54.889Z,46.96
2023-07-09T12:43:32.505Z,47.30
2023-07-09T12:46:02.771Z,47.18
2023-07-09T12:48:31.104Z,47.37
2023-07-09T12:51:00.231Z,47.28
2023-07-09T12:53:28.971Z,47.52
2023-07-09T12:56:01.208Z,47.14
2023-07-09T12:58:37.076Z,47.26
2023-07-09T13:01:14.867Z,47.31
2023-07-09T13:03:42.056Z,47.55
2023-07-09T13:06:28.725Z,47.51
2023-07-09T13:09:01.847Z,47.64
2023-07-09T13:11:36.734Z,47.57
2023-07-09T13:14:06.132Z,47.39
2023-07-09T13:16:42.462Z,47.27
2023-07-09T13:19:10.424Z,47.30
2023-07-09T13:21:39.434Z,47.16
2023-07-09T13:24:29.231Z,46.96
2023-07-09T13:26:59.147Z,47.09
2023-07-09T13:29:26.315Z,47.00
2023-07-09T13:31:54.507Z,46.43
2023-07-09T13:34:26.815Z,45.45
2023-07-09T13:36:57.079Z,46.49
2023-07-09T13:39:25.707Z,46.77
2023-07-09T13:41:57.228Z,46.51
2023-07-09T13:44:26.795Z,43.66
2023-07-09T13:46:53.427Z,45.91
2023-07-09T13:49:22.202Z,46.43
2023-07-09T13:51:51.805Z,46.29
2023-07-09T13:54:25.135Z,46.74
2023-07-09T13:56:52.525Z,46.72
2023-07-09T13:59:26.269Z,46.70
2023-07-09T14:01:56.817Z,46.55
2023-07-09T14:04:25.208Z,46.53
2023-07-09T14:06:52.115Z,46.38
2023-07-09T14:09:18.966Z,46.29
2023-07-09T14:11:49.323Z,46.46
2023-07-09T14:14:20.695Z,46.19
2023-07-09T14:16:49.007Z,46.51
2023-07-09T14:19:24.215Z,46.51
2023-07-09T14:21:52.795Z,46.18
2023-07-09T14:24:24.102Z,46.25
2023-07-09T14:26:52.556Z,45.90
2023-07-09T14:29:19.876Z,45.93
2023-07-09T14:31:47.212Z,45.66
2023-07-09T14:34:22.193Z,45.77
2023-07-09T14:36:50.022Z,45.78
2023-07-09T14:39:16.637Z,45.77
2023-07-09T14:44:23.315Z,45.52
2023-07-09T14:46:51.443Z,46.18
2023-07-09T14:49:19.744Z,45.61
2023-07-09T14:51:47.317Z,45.46
2023-07-09T14:54:24.759Z,45.61
2023-07-09T14:56:52.311Z,45.97
2023-07-09T14:59:19.532Z,46.03
2023-07-09T15:01:47.279Z,46.24
2023-07-09T15:04:23.075Z,46.12
2023-07-09T15:06:53.973Z,46.27
2023-07-09T15:09:22.904Z,46.32
2023-07-09T15:11:52.030Z,46.15
2023-07-09T15:14:18.606Z,45.99
2023-07-09T15:16:48.320Z,45.82
2023-07-09T15:19:16.014Z,45.80
2023-07-09T15:21:42.797Z,46.17
2023-07-09T15:24:34.003Z,46.00
2023-07-09T15:27:01.510Z,46.25
2023-07-09T15:29:29.825Z,46.34
2023-07-09T15:31:56.458Z,46.35
2023-07-09T15:34:23.074Z,46.19
2023-07-09T15:36:52.788Z,46.15
2023-07-09T15:39:21.425Z,46.30
2023-07-09T15:41:48.954Z,46.40
2023-07-09T15:44:17.295Z,46.24
2023-07-09T15:46:52.636Z,46.23
2023-07-09T15:49:19.673Z,46.46
2023-07-09T15:51:46.229Z,46.35
2023-07-09T15:54:21.943Z,46.50
2023-07-09T15:56:50.221Z,46.41
2023-07-09T15:59:30.838Z,46.36
2023-07-09T16:01:58.877Z,46.34
2023-07-09T16:04:26.097Z,46.27
2023-07-09T16:06:52.942Z,46.23
2023-07-09T16:09:20.080Z,46.29
2023-07-09T16:11:52.028Z,46.27
2023-07-09T16:14:26.057Z,46.54
2023-07-09T16:16:54.441Z,46.13
2023-07-09T16:19:22.975Z,45.93
2023-07-09T16:21:52.676Z,46.24
2023-07-09T16:24:24.928Z,46.01
2023-07-09T16:31:56.120Z,46.18
2023-07-09T16:34:24.171Z,46.11
2023-07-09T16:36:51.290Z,46.19
2023-07-09T16:39:31.694Z,46.33
2023-07-09T16:41:59.313Z,46.40
2023-07-09T16:44:26.530Z,46.10
2023-07-09T16:46:54.535Z,46.09
2023-07-09T16:49:36.546Z,46.43
2023-07-09T16:52:03.638Z,46.19
2023-07-09T16:54:30.344Z,46.46
2023-07-09T16:56:56.894Z,46.43
2023-07-09T16:59:23.769Z,46.54
2023-07-09T17:01:51.463Z,46.71
2023-07-09T17:04:28.163Z,46.56
2023-07-09T17:06:55.377Z,46.66
2023-07-09T17:09:22.113Z,46.76
2023-07-09T17:11:57.569Z,46.68
2023-07-09T17:14:25.043Z,46.72
2023-07-09T17:16:54.436Z,46.88
2023-07-09T17:19:20.977Z,47.02
2023-07-09T17:21:50.441Z,46.79
2023-07-09T17:24:23.827Z,46.62
2023-07-09T17:26:51.147Z,46.90
2023-07-09T17:29:18.291Z,47.03
2023-07-09T17:31:52.444Z,47.09
2023-07-09T17:34:19.136Z,47.13
2023-07-09T17:36:47.077Z,47.09
2023-07-09T17:39:22.258Z,47.09
2023-07-09T17:41:49.908Z,47.21
2023-07-09T17:44:22.018Z,47.07
2023-07-09T17:46:51.615Z,47.21
2023-07-09T17:49:20.579Z,47.25
2023-07-09T17:51:47.174Z,47.38
2023-07-09T17:54:24.404Z,47.30
2023-07-09T17:56:53.760Z,47.48
2023-07-09T17:59:23.860Z,47.34
2023-07-09T18:02:03.736Z,47.47
2023-07-09T18:04:31.456Z,47.33
2023-07-09T18:07:00.258Z,47.49
2023-07-09T18:09:26.848Z,47.33
2023-07-09T18:11:55.731Z,47.48
2023-07-09T18:14:26.314Z,47.44
2023-07-09T18:16:53.816Z,47.60
2023-07-09T18:19:25.885Z,47.59
2023-07-09T18:21:55.261Z,47.54
2023-07-09T18:24:22.115Z,47.49
2023-07-09T18:26:49.007Z,47.76
2023-07-09T18:29:35.148Z,47.79
2023-07-09T18:32:04.195Z,47.82
2023-07-09T18:34:32.619Z,47.77
2023-07-09T18:37:02.279Z,47.79
2023-07-09T18:39:28.841Z,47.78
2023-07-09T18:41:55.894Z,47.90
2023-07-09T18:44:24.184Z,48.99
2023-07-09T18:46:51.676Z,49.13
2023-07-09T18:49:18.439Z,49.16
2023-07-09T18:51:45.675Z,49.30
2023-07-09T18:54:20.271Z,49.41
2023-07-09T18:56:49.714Z,49.14
2023-07-09T18:59:22.384Z,49.53
2023-07-09T19:01:50.169Z,49.77
2023-07-09T19:04:23.265Z,49.50
2023-07-09T19:06:49.831Z,49.01
2023-07-09T19:09:24.504Z,49.55
2023-07-09T19:11:55.141Z,49.45
2023-07-09T19:14:22.309Z,49.29
2023-07-09T19:16:53.253Z,49.17
2023-07-09T19:19:21.928Z,49.31
2023-07-09T19:21:52.724Z,49.39
2023-07-09T19:24:21.912Z,49.42
2023-07-09T19:26:49.586Z,49.35
2023-07-09T19:29:17.248Z,49.31
2023-07-09T19:31:47.736Z,49.38
2023-07-09T19:34:20.584Z,49.21
2023-07-09T19:36:50.631Z,49.29
2023-07-09T19:39:32.211Z,49.21
2023-07-09T19:42:07.196Z,49.24
2023-07-09T19:44:33.712Z,49.07
2023-07-09T19:47:03.141Z,49.23
2023-07-09T19:49:29.784Z,49.23
2023-07-09T19:51:57.667Z,49.22
2023-07-09T19:54:26.107Z,49.22
2023-07-09T19:56:53.889Z,49.32
2023-07-09T19:59:20.520Z,49.70
2023-07-09T20:01:52.001Z,49.32
2023-07-09T20:04:18.587Z,49.49
2023-07-09T20:06:45.199Z,49.36
2023-07-09T20:09:16.703Z,49.63
2023-07-09T20:11:47.171Z,49.56
2023-07-09T20:14:16.372Z,49.53
2023-07-09T20:16:43.257Z,49.62
2023-07-09T20:19:12.540Z,49.61
2023-07-09T20:21:41.088Z,49.57
2023-07-09T20:24:19.135Z,49.66
2023-07-09T20:26:46.850Z,49.66
2023-07-09T20:29:17.956Z,49.57
2023-07-09T20:31:50.374Z,49.98
2023-07-09T20:34:22.876Z,50.17
2023-07-09T20:36:51.427Z,50.39
2023-07-09T20:39:21.218Z,50.09
2023-07-09T20:41:50.394Z,50.54
2023-07-09T20:44:26.521Z,50.11
2023-07-09T20:46:53.103Z,50.35
2023-07-09T20:49:35.015Z,50.66
2023-07-09T20:52:01.952Z,50.73
2023-07-09T20:54:28.756Z,50.87
2023-07-09T20:57:01.047Z,51.16
2023-07-09T20:59:28.935Z,50.78
2023-07-09T21:01:55.897Z,50.89
2023-07-09T21:04:22.634Z,50.88
2023-07-09T21:06:51.101Z,50.90
2023-07-09T21:09:28.912Z,50.89
2023-07-09T21:11:55.479Z,50.83
2023-07-09T21:14:22.017Z,51.11
2023-07-09T21:16:50.074Z,50.93
2023-07-09T21:19:23.879Z,50.97
2023-07-09T21:21:51.131Z,50.91
2023-07-09T21:24:26.842Z,51.31
2023-07-09T21:26:54.867Z,51.23
2023-07-09T21:29:22.559Z,51.25
2023-07-09T21:31:50.744Z,51.33
2023-07-09T21:34:28.048Z,51.28
2023-07-09T21:36:55.878Z,51.13
2023-07-09T21:39:24.653Z,51.10
2023-07-09T21:41:54.858Z,51.02
2023-07-09T21:44:22.784Z,50.96
2023-07-09T21:46:53.479Z,51.12
2023-07-09T21:49:23.567Z,50.97
2023-07-09T21:51:50.168Z,51.02
2023-07-09T21:54:23.599Z,51.09
2023-07-09T21:57:04.193Z,51.30
2023-07-09T21:59:32.730Z,51.60
2023-07-09T22:02:02.202Z,51.35
2023-07-09T22:04:35.018Z,51.26
2023-07-09T22:07:11.969Z,51.28
2023-07-09T22:09:38.544Z,51.32
2023-07-09T22:12:05.567Z,51.62
2023-07-09T22:14:32.120Z,51.90
2023-07-09T22:16:58.680Z,51.81
2023-07-09T22:19:32.054Z,51.84
2023-07-09T22:22:03.657Z,51.84
2023-07-09T22:24:30.184Z,52.24
2023-07-09T22:26:57.175Z,51.94
2023-07-09T22:29:23.784Z,52.06
2023-07-09T22:31:50.411Z,52.13
2023-07-09T22:34:23.148Z,52.38
2023-07-09T22:36:50.752Z,52.27
2023-07-09T22:39:19.243Z,52.66
2023-07-09T22:41:47.099Z,52.55
2023-07-09T22:44:14.258Z,52.48
2023-07-09T22:46:42.260Z,52.35
2023-07-09T22:49:14.906Z,52.70
2023-07-09T22:51:41.424Z,52.62
2023-07-09T22:54:11.599Z,52.69
2023-07-09T22:56:38.221Z,52.78
2023-07-09T22:59:04.827Z,52.46
2023-07-09T23:01:32.490Z,52.58
2023-07-09T23:03:59.152Z,53.04
2023-07-09T23:06:27.640Z,53.15
2023-07-09T23:08:56.622Z,52.97
2023-07-09T23:11:28.841Z,52.89
2023-07-09T23:13:57.194Z,53.13
2023-07-09T23:16:27.023Z,53.06
2023-07-09T23:18:53.994Z,53.03
2023-07-09T23:21:24.640Z,53.13
2023-07-09T23:24:00.285Z,53.15
2023-07-09T23:26:29.113Z,53.14
2023-07-09T23:28:56.802Z,52.97
2023-07-09T23:31:28.853Z,52.80
2023-07-09T23:33:57.403Z,52.68
2023-07-09T23:36:24.765Z,52.56
2023-07-09T23:38:51.213Z,53.18
2023-07-09T23:41:26.239Z,52.99
2023-07-09T23:43:54.220Z,52.99
2023-07-09T23:46:21.199Z,52.34
2023-07-09T23:48:51.519Z,52.55
2023-07-09T23:51:27.303Z,52.53
2023-07-09T23:53:53.813Z,52.39
2023-07-09T23:56:28.652Z,52.52
2023-07-09T23:58:56.279Z,52.38
